Time;durP1;ratioP1;P1;durP2;ratioP2;P2;SDS_P1;SDS_P2;PMS_P1;PMS_P2;Temp;Humidity;BMP_temperature;BMP_pressure;BME280_temperature;BME280_humidity;BME280_pressure;Samples;Min_cycle;Max_cycle;Signal;HPM_P1;HPM_P2
2022/03/27 00:00:36;;;;;;;8.50;5.63;;;;;;;14.64;50.75;103100.16;5066119;28;20052;-60
2022/03/27 00:03:06;;;;;;;12.10;5.32;;;;;;;14.63;50.58;103097.66;5062403;28;20079;-60
2022/03/27 00:05:34;;;;;;;7.00;4.72;;;;;;;14.63;50.90;103108.47;5065202;28;20102;-60
2022/03/27 00:08:03;;;;;;;12.30;4.82;;;;;;;14.62;50.86;103104.09;5056168;28;20087;-60
2022/03/27 00:11:23;;;;;;;6.75;3.95;;;;;;;14.60;50.49;103111.56;5058986;28;20050;-59
2022/03/27 00:13:18;;;;;;;6.65;4.15;;;;;;;14.59;50.83;103118.00;5060618;28;20044;-60
2022/03/27 00:15:46;;;;;;;7.28;4.80;;;;;;;14.59;51.06;103115.31;5065444;28;20052;-60
2022/03/27 00:18:15;;;;;;;6.28;4.10;;;;;;;14.58;51.10;103116.34;5074458;28;20048;-60
2022/03/27 00:20:43;;;;;;;7.75;4.80;;;;;;;14.56;51.02;103116.53;5055755;28;20077;-61
2022/03/27 00:23:10;;;;;;;10.65;4.45;;;;;;;14.56;50.51;103115.69;5060404;28;20052;-61
2022/03/27 00:25:38;;;;;;;7.28;4.57;;;;;;;14.54;51.25;103106.91;5064296;28;20443;-60
2022/03/27 00:28:06;;;;;;;11.85;4.95;;;;;;;14.52;51.32;103108.97;5064585;28;20049;-60
2022/03/27 00:30:34;;;;;;;8.63;4.45;;;;;;;14.51;50.79;103112.72;5064498;28;20109;-59
2022/03/27 00:33:02;;;;;;;9.38;4.50;;;;;;;14.49;50.81;103104.78;5065131;28;20065;-59
2022/03/27 00:35:31;;;;;;;7.43;4.47;;;;;;;14.47;51.14;103104.16;5067575;28;20116;-60
2022/03/27 00:37:58;;;;;;;6.93;4.10;;;;;;;14.46;50.83;103107.03;5062032;28;20494;-60
2022/03/27 00:40:26;;;;;;;7.75;4.20;;;;;;;14.44;51.32;103101.00;5067220;28;20467;-60
2022/03/27 00:42:54;;;;;;;6.35;3.60;;;;;;;14.43;50.90;103102.03;5058203;28;20080;-60
2022/03/27 00:45:21;;;;;;;8.05;5.05;;;;;;;14.42;51.43;103097.63;5051703;28;20076;-60
2022/03/27 00:47:49;;;;;;;7.03;4.55;;;;;;;14.40;51.28;103102.38;5055970;28;20056;-60
2022/03/27 00:50:17;;;;;;;10.27;4.65;;;;;;;14.40;51.07;103103.22;5068860;28;20063;-60
2022/03/27 00:52:47;;;;;;;8.38;5.05;;;;;;;14.37;50.87;103095.47;5064214;28;20110;-59
2022/03/27 00:55:14;;;;;;;8.13;4.35;;;;;;;14.35;50.80;103092.13;5062729;28;20073;-60
2022/03/27 00:57:42;;;;;;;8.32;4.63;;;;;;;14.34;51.57;103088.59;5059789;28;20060;-61
2022/03/27 01:00:18;;;;;;;7.75;4.45;;;;;;;14.33;51.26;103103.13;5064086;28;20060;-61
2022/03/27 01:02:46;;;;;;;8.88;4.25;;;;;;;14.33;51.36;103103.13;5060867;28;20088;-60
2022/03/27 01:05:19;;;;;;;7.28;4.47;;;;;;;14.32;51.87;103089.81;5064867;28;20049;-61
2022/03/27 01:07:48;;;;;;;7.10;4.07;;;;;;;14.31;51.62;103094.38;5061777;28;20129;-61
2022/03/27 01:10:22;;;;;;;7.07;4.22;;;;;;;14.30;51.68;103098.13;5057141;28;20132;-59
2022/03/27 01:12:50;;;;;;;8.23;4.50;;;;;;;14.30;52.02;103094.56;5062337;28;20128;-59
2022/03/27 01:15:26;;;;;;;6.70;4.43;;;;;;;14.29;51.82;103090.19;5064684;28;20068;-60
2022/03/27 01:17:54;;;;;;;7.63;4.38;;;;;;;14.28;52.08;103102.88;5063076;28;20059;-61
2022/03/27 01:20:30;;;;;;;6.70;4.22;;;;;;;14.26;51.93;103094.13;5067970;28;20048;-60
2022/03/27 01:22:58;;;;;;;6.93;4.25;;;;;;;14.25;51.85;103099.72;5061741;28;20100;-61
2022/03/27 01:25:26;;;;;;;5.78;3.78;;;;;;;14.23;51.71;103097.19;5057836;28;20076;-60
2022/03/27 01:27:53;;;;;;;8.10;4.60;;;;;;;14.20;52.13;103094.03;5060148;28;20129;-59
2022/03/27 01:30:21;;;;;;;9.00;4.85;;;;;;;14.19;52.33;103097.78;5064518;28;20077;-59
2022/03/27 01:32:51;;;;;;;7.32;4.07;;;;;;;14.15;52.32;103091.91;5063989;28;20084;-60
2022/03/27 01:35:19;;;;;;;6.97;4.13;;;;;;;14.15;52.19;103091.06;5059442;28;20075;-60
2022/03/27 01:37:49;;;;;;;6.53;4.20;;;;;;;14.12;52.66;103088.75;5066849;28;20076;-60
2022/03/27 01:40:18;;;;;;;9.63;5.50;;;;;;;14.12;52.33;103091.44;5062214;28;20083;-60
2022/03/27 01:42:46;;;;;;;6.55;4.15;;;;;;;14.09;52.20;103089.97;5058802;28;20064;-61
2022/03/27 01:45:14;;;;;;;7.15;4.25;;;;;;;14.08;52.64;103087.44;5059553;28;20057;-61
2022/03/27 01:47:42;;;;;;;8.35;4.50;;;;;;;14.06;52.59;103084.09;5069926;28;20045;-61
2022/03/27 01:50:10;;;;;;;10.85;4.68;;;;;;;14.05;52.92;103082.44;5063813;28;20072;-60
2022/03/27 01:52:38;;;;;;;7.63;4.38;;;;;;;14.03;53.14;103082.63;5062744;28;20095;-61
2022/03/27 01:55:11;;;;;;;5.53;3.70;;;;;;;14.01;53.02;103084.66;5061636;28;20091;-61
2022/03/27 01:57:39;;;;;;;8.82;4.55;;;;;;;14.00;52.87;103086.53;5059417;28;20064;-60
2022/03/27 02:00:09;;;;;;;8.65;4.22;;;;;;;13.99;53.16;103087.56;5063680;28;20049;-61
2022/03/27 02:02:37;;;;;;;7.63;4.38;;;;;;;13.98;53.15;103088.59;5063178;28;20048;-60
2022/03/27 02:05:05;;;;;;;6.93;3.80;;;;;;;13.96;52.48;103089.81;5069492;28;20049;-60
2022/03/27 02:07:37;;;;;;;8.88;4.38;;;;;;;13.97;52.96;103088.78;5058636;28;20049;-60
2022/03/27 02:10:06;;;;;;;8.32;4.90;;;;;;;13.96;53.09;103079.00;5061673;28;20084;-61
2022/03/27 02:12:35;;;;;;;9.48;4.68;;;;;;;13.95;52.70;103088.13;5072246;28;20045;-60
2022/03/27 02:15:05;;;;;;;6.47;4.07;;;;;;;13.93;52.79;103084.78;5062711;28;20095;-60
2022/03/27 02:17:33;;;;;;;7.35;4.85;;;;;;;13.85;53.14;103066.00;5061741;28;20056;-60
2022/03/27 02:20:07;;;;;;;8.85;4.60;;;;;;;13.91;53.09;103079.56;5063182;28;20075;-60
2022/03/27 02:22:35;;;;;;;6.03;4.28;;;;;;;13.91;53.04;103084.97;5061274;28;20083;-61
2022/03/27 02:25:03;;;;;;;8.10;4.82;;;;;;;13.90;52.91;103079.75;5062325;28;20045;-61
2022/03/27 02:27:31;;;;;;;14.38;4.32;;;;;;;13.88;53.00;103079.09;5063785;28;20399;-59
2022/03/27 02:30:00;;;;;;;10.73;4.35;;;;;;;13.86;52.82;103082.03;5051779;28;20053;-59
2022/03/27 02:32:27;;;;;;;7.35;4.45;;;;;;;13.83;53.72;103076.16;5055664;28;20439;-60
2022/03/27 02:34:55;;;;;;;7.78;4.93;;;;;;;13.82;53.57;103069.06;5054071;28;20088;-61
2022/03/27 02:37:23;;;;;;;8.88;5.10;;;;;;;13.81;53.55;103070.94;5066839;28;20045;-60
2022/03/27 02:39:51;;;;;;;9.80;5.15;;;;;;;13.79;53.72;103078.41;5051494;28;20064;-60
2022/03/27 02:42:18;;;;;;;6.80;4.30;;;;;;;13.79;53.43;103077.56;5064465;28;20091;-60
2022/03/27 02:44:46;;;;;;;8.05;4.53;;;;;;;13.77;53.76;103069.66;5059296;28;20081;-60
2022/03/27 02:47:16;;;;;;;6.93;4.05;;;;;;;13.76;53.13;103077.94;5057442;28;20048;-60
2022/03/27 02:49:43;;;;;;;9.75;4.82;;;;;;;13.73;53.91;103076.44;5063873;28;20060;-59
2022/03/27 02:52:11;;;;;;;8.02;4.78;;;;;;;13.72;53.56;103073.94;5060796;28;20115;-59
2022/03/27 02:54:39;;;;;;;9.35;4.53;;;;;;;13.72;53.41;103065.84;5062122;28;20135;-61
2022/03/27 02:57:07;;;;;;;10.07;4.97;;;;;;;13.70;53.69;103073.28;5062066;28;20045;-60
2022/03/27 02:59:35;;;;;;;8.68;4.85;;;;;;;13.67;53.70;103066.41;5058600;28;20053;-60
2022/03/27 03:02:04;;;;;;;6.40;4.55;;;;;;;13.63;53.74;103068.63;5053299;28;20080;-61
2022/03/27 03:04:34;;;;;;;7.20;4.82;;;;;;;13.61;53.81;103072.56;5061628;28;20049;-59
2022/03/27 03:07:03;;;;;;;10.23;4.60;;;;;;;13.60;54.05;103068.16;5068217;28;20044;-60
2022/03/27 03:09:31;;;;;;;7.05;4.60;;;;;;;13.57;53.90;103071.25;5058569;28;20076;-60
2022/03/27 03:11:58;;;;;;;7.90;5.13;;;;;;;13.56;54.07;103081.22;5064709;28;20083;-60
2022/03/27 03:14:26;;;;;;;10.13;5.45;;;;;;;13.54;54.19;103069.75;5061933;28;20050;-59
2022/03/27 03:16:54;;;;;;;9.27;5.22;;;;;;;13.50;54.09;103076.56;5062057;28;20071;-59
2022/03/27 03:19:22;;;;;;;10.32;5.40;;;;;;;13.53;54.11;103076.19;5061771;28;20171;-59
2022/03/27 03:21:52;;;;;;;9.25;6.25;;;;;;;13.52;54.42;103079.06;5058771;28;20440;-60
2022/03/27 03:24:20;;;;;;;8.40;5.80;;;;;;;13.49;54.38;103069.47;5061408;28;20045;-60
2022/03/27 03:26:49;;;;;;;10.10;6.18;;;;;;;13.46;53.40;103079.81;5057579;28;20493;-61
2022/03/27 03:29:16;;;;;;;10.15;6.25;;;;;;;13.44;54.52;103077.31;5060881;28;20490;-61
2022/03/27 03:31:44;;;;;;;10.10;6.38;;;;;;;13.45;54.53;103075.44;5065020;28;20494;-59
2022/03/27 03:34:12;;;;;;;9.52;6.50;;;;;;;13.44;54.22;103077.31;5062053;28;20084;-60
2022/03/27 03:36:40;;;;;;;9.43;6.50;;;;;;;13.43;54.20;103075.63;5065465;28;20088;-60
2022/03/27 03:39:10;;;;;;;8.88;6.53;;;;;;;13.43;54.30;103072.09;5060687;28;20486;-59
2022/03/27 03:41:38;;;;;;;9.57;6.20;;;;;;;13.43;54.28;103075.63;5058557;28;20041;-60
2022/03/27 03:44:23;;;;;;;9.82;6.63;;;;;;;13.40;54.43;103076.00;5063113;28;20095;-61
2022/03/27 03:46:51;;;;;;;11.38;7.15;;;;;;;13.41;54.66;103071.44;5065946;28;20071;-60
2022/03/27 03:49:20;;;;;;;12.35;6.30;;;;;;;13.40;54.51;103064.38;5060643;28;20112;-60
2022/03/27 03:51:48;;;;;;;11.77;7.82;;;;;;;13.37;53.81;103065.56;5063768;28;20057;-60
2022/03/27 03:54:17;;;;;;;10.48;6.70;;;;;;;13.35;54.38;103076.56;5061831;28;20045;-60
2022/03/27 03:56:45;;;;;;;9.20;7.30;;;;;;;13.35;54.82;103067.63;5054355;28;20080;-60
2022/03/27 03:59:13;;;;;;;11.00;7.32;;;;;;;13.34;54.45;103072.19;5056616;28;20056;-60
2022/03/27 04:01:56;;;;;;;11.18;7.90;;;;;;;13.33;54.99;103075.06;5063640;28;20103;-60
2022/03/27 04:04:24;;;;;;;11.73;7.38;;;;;;;13.31;54.76;103074.41;5073748;28;20045;-60
2022/03/27 04:06:52;;;;;;;9.65;7.25;;;;;;;13.29;54.54;103071.91;5059304;28;20477;-60
2022/03/27 04:09:21;;;;;;;11.75;7.28;;;;;;;13.30;54.77;103072.75;5064285;28;20075;-60
2022/03/27 04:11:49;;;;;;;10.52;7.82;;;;;;;13.25;54.52;103067.06;5064859;28;20053;-60
2022/03/27 04:14:17;;;;;;;12.60;8.25;;;;;;;13.25;54.93;103065.19;5063752;28;20148;-60
2022/03/27 04:16:45;;;;;;;14.02;8.25;;;;;;;13.24;55.30;103065.38;5064798;28;20076;-60
2022/03/27 04:19:13;;;;;;;10.80;8.25;;;;;;;13.23;55.47;103069.94;5065389;28;20071;-59
2022/03/27 04:21:41;;;;;;;10.60;8.10;;;;;;;13.22;54.96;103068.25;5058827;28;20561;-60
2022/03/27 04:24:10;;;;;;;11.10;7.70;;;;;;;13.22;55.44;103070.97;5057411;28;20041;-59
2022/03/27 04:26:40;;;;;;;12.60;7.88;;;;;;;13.22;55.01;103062.88;5051370;28;20132;-60
2022/03/27 04:29:10;;;;;;;9.40;7.40;;;;;;;13.23;55.20;103059.13;5061025;28;20048;-60
2022/03/27 04:31:39;;;;;;;10.55;7.35;;;;;;;13.21;55.13;103068.44;5066914;28;20060;-59
2022/03/27 04:34:07;;;;;;;11.05;8.48;;;;;;;13.22;55.41;103067.44;5063886;28;20075;-60
2022/03/27 04:36:35;;;;;;;12.70;7.82;;;;;;;13.19;55.16;103065.94;5062939;28;20122;-59
2022/03/27 04:39:04;;;;;;;11.80;7.88;;;;;;;13.18;55.40;103068.81;5062272;28;20045;-61
2022/03/27 04:41:31;;;;;;;11.65;8.15;;;;;;;13.14;54.93;103071.00;5061530;28;20107;-61
2022/03/27 04:44:00;;;;;;;10.30;8.23;;;;;;;13.13;55.71;103073.91;5056408;28;20178;-59
2022/03/27 04:46:28;;;;;;;9.20;7.60;;;;;;;13.11;55.31;103074.09;5065314;28;20087;-60
2022/03/27 04:48:56;;;;;;;10.13;7.50;;;;;;;13.08;55.12;103065.50;5065909;28;20463;-60
2022/03/27 04:51:24;;;;;;;12.35;8.18;;;;;;;13.07;55.97;103077.34;5064193;28;20049;-60
2022/03/27 04:53:52;;;;;;;13.05;8.65;;;;;;;13.04;55.98;103073.13;5062087;28;20072;-60
2022/03/27 04:56:19;;;;;;;9.10;7.30;;;;;;;13.01;56.01;103074.34;5061869;28;20045;-60
2022/03/27 04:58:47;;;;;;;11.65;8.07;;;;;;;13.00;55.96;103072.66;5056320;28;20087;-60
2022/03/27 05:01:16;;;;;;;11.60;8.27;;;;;;;12.99;55.89;103067.44;5062852;28;20406;-59
2022/03/27 05:03:44;;;;;;;13.27;9.00;;;;;;;12.98;56.06;103073.88;5060042;28;20040;-59
2022/03/27 05:06:12;;;;;;;10.75;8.05;;;;;;;12.97;56.19;103077.59;5062252;28;20048;-60
2022/03/27 05:08:40;;;;;;;11.20;9.00;;;;;;;12.95;56.50;103077.78;5063008;28;20076;-60
2022/03/27 05:11:08;;;;;;;14.45;9.68;;;;;;;12.95;56.58;103087.75;5065422;28;20049;-60
2022/03/27 05:13:36;;;;;;;12.77;9.48;;;;;;;12.96;56.74;103081.31;5066408;28;20117;-60
2022/03/27 05:16:04;;;;;;;11.63;8.95;;;;;;;12.97;56.59;103086.53;5066059;28;20048;-61
2022/03/27 05:18:33;;;;;;;12.25;8.65;;;;;;;12.98;56.30;103087.38;5066431;28;20056;-60
2022/03/27 05:21:01;;;;;;;12.13;8.57;;;;;;;12.98;56.30;103092.78;5064496;28;20076;-60
2022/03/27 05:23:29;;;;;;;12.48;9.10;;;;;;;12.98;56.21;103093.59;5063811;28;20049;-60
2022/03/27 05:25:57;;;;;;;13.88;9.15;;;;;;;12.97;55.95;103093.78;5064570;28;20081;-61
2022/03/27 05:28:24;;;;;;;11.85;8.77;;;;;;;12.93;55.91;103087.06;5064192;28;20053;-61
2022/03/27 05:30:52;;;;;;;11.32;9.10;;;;;;;12.93;56.17;103100.56;5061031;28;20083;-59
2022/03/27 05:33:20;;;;;;;10.55;8.38;;;;;;;12.91;56.26;103095.34;5067763;28;20108;-61
2022/03/27 05:35:49;;;;;;;11.80;8.82;;;;;;;12.89;56.55;103102.81;5056874;28;20627;-60
2022/03/27 05:38:17;;;;;;;10.88;8.82;;;;;;;12.85;56.17;103095.25;5063656;28;20171;-61
2022/03/27 05:40:45;;;;;;;11.20;8.82;;;;;;;12.84;56.71;103098.97;5065997;28;20072;-61
2022/03/27 05:43:13;;;;;;;13.07;9.25;;;;;;;12.82;56.52;103101.84;5071710;28;20060;-61
2022/03/27 05:45:41;;;;;;;14.25;9.35;;;;;;;12.81;56.46;103097.47;5054227;28;20479;-61
2022/03/27 05:48:09;;;;;;;12.05;9.55;;;;;;;12.80;56.43;103105.75;5061701;28;20544;-60
2022/03/27 05:50:37;;;;;;;11.77;9.38;;;;;;;12.77;56.94;103101.56;5063906;28;20088;-60
2022/03/27 05:53:06;;;;;;;15.43;9.30;;;;;;;12.73;56.73;103097.53;5063006;28;20089;-60
2022/03/27 05:55:34;;;;;;;12.02;9.68;;;;;;;12.76;56.24;103107.13;5064989;28;20072;-61
2022/03/27 05:58:02;;;;;;;13.70;9.43;;;;;;;12.76;56.97;103104.44;5063871;28;20047;-60
2022/03/27 06:00:30;;;;;;;13.98;10.52;;;;;;;12.76;56.76;103105.28;5065450;28;20072;-60
2022/03/27 06:02:57;;;;;;;11.85;9.40;;;;;;;12.73;56.50;103116.44;5064941;28;20055;-61
2022/03/27 06:05:25;;;;;;;13.38;9.55;;;;;;;12.74;56.18;103109.16;5061271;28;20075;-60
2022/03/27 06:07:54;;;;;;;13.02;9.57;;;;;;;12.70;56.58;103112.22;5061511;28;20113;-61
2022/03/27 06:10:25;;;;;;;16.27;10.75;;;;;;;12.67;56.80;103117.97;5063995;28;20076;-60
2022/03/27 06:12:54;;;;;;;15.65;10.30;;;;;;;12.60;56.86;103108.09;5058363;28;20047;-61
2022/03/27 06:15:22;;;;;;;14.32;10.43;;;;;;;12.66;56.96;103121.69;5067764;28;20052;-61
2022/03/27 06:17:52;;;;;;;16.10;11.68;;;;;;;12.66;56.64;103121.69;5063637;28;20060;-60
2022/03/27 06:20:21;;;;;;;18.63;12.55;;;;;;;12.60;56.88;103116.19;5064880;28;20052;-63
2022/03/27 06:22:49;;;;;;;20.90;14.27;;;;;;;12.64;57.45;103114.81;5063002;28;20457;-60
2022/03/27 06:25:18;;;;;;;21.50;14.68;;;;;;;12.63;57.40;103119.38;5062897;28;20072;-59
2022/03/27 06:27:48;;;;;;;19.48;13.48;;;;;;;12.63;57.40;103121.22;5062866;28;20056;-59
2022/03/27 06:30:19;;;;;;;22.77;14.82;;;;;;;12.63;57.20;103119.38;5063049;28;20076;-60
2022/03/27 06:32:47;;;;;;;20.58;13.57;;;;;;;12.64;56.86;103120.22;5057751;28;20417;-59
2022/03/27 06:35:16;;;;;;;22.58;15.23;;;;;;;12.62;57.34;103122.25;4704015;28;10000213;-60
2022/03/27 06:37:45;;;;;;;21.38;14.80;;;;;;;12.64;57.19;103131.00;5053616;28;20144;-62
2022/03/27 06:40:15;;;;;;;24.98;14.90;;;;;;;12.64;56.98;103128.28;5059376;28;20075;-60
2022/03/27 06:42:45;;;;;;;20.38;14.05;;;;;;;12.63;57.00;103127.47;5061551;28;20061;-60
2022/03/27 06:45:15;;;;;;;27.33;14.27;;;;;;;12.65;56.84;103127.28;5052757;28;20091;-60
2022/03/27 06:47:44;;;;;;;20.55;14.25;;;;;;;12.65;57.41;103124.56;5055657;28;20049;-59
2022/03/27 06:50:13;;;;;;;21.25;14.63;;;;;;;12.64;57.23;103118.34;5051573;28;20523;-59
2022/03/27 06:52:41;;;;;;;28.40;15.90;;;;;;;12.64;57.26;103125.59;5057595;28;20132;-58
2022/03/27 06:55:11;;;;;;;21.55;15.30;;;;;;;12.63;57.31;103127.47;5065602;28;20056;-59
2022/03/27 06:57:39;;;;;;;20.80;15.02;;;;;;;12.63;57.07;103123.91;5057974;28;20073;-60
2022/03/27 07:03:03;;;;;;;21.30;14.80;;;;;;;12.63;57.40;103132.00;5054624;28;20087;-58
2022/03/27 07:05:31;;;;;;;23.08;15.95;;;;;;;12.62;57.44;103131.19;5059616;28;20101;-59
2022/03/27 07:08:04;;;;;;;24.50;16.30;;;;;;;12.62;57.15;103133.03;5052613;28;20054;-59
2022/03/27 07:10:32;;;;;;;23.63;16.02;;;;;;;12.60;57.60;103135.91;5043992;28;20053;-59
2022/03/27 07:13:00;;;;;;;26.17;16.08;;;;;;;12.59;57.75;103133.38;5051490;28;20144;-58
2022/03/27 07:15:28;;;;;;;23.95;16.48;;;;;;;12.58;57.87;103134.41;5058244;28;20087;-59
2022/03/27 07:17:59;;;;;;;22.65;15.88;;;;;;;12.55;57.47;103137.47;5057426;28;20156;-58
2022/03/27 07:20:31;;;;;;;21.00;14.23;;;;;;;12.58;57.08;103143.34;5058671;28;20049;-59
2022/03/27 07:23:00;;;;;;;21.38;14.35;;;;;;;12.58;57.22;103143.34;5056605;28;20057;-59
2022/03/27 07:25:29;;;;;;;21.08;14.10;;;;;;;12.57;57.21;103141.66;5059312;28;20084;-61
2022/03/27 07:27:57;;;;;;;19.58;13.45;;;;;;;12.54;57.12;103144.72;5056137;28;20135;-59
2022/03/27 07:30:25;;;;;;;18.88;12.93;;;;;;;12.52;57.31;103145.91;5056182;28;20554;-59
2022/03/27 07:32:53;;;;;;;18.98;13.25;;;;;;;12.50;57.15;103146.09;5058359;28;20071;-59
2022/03/27 07:35:22;;;;;;;18.67;13.43;;;;;;;12.47;57.32;103142.91;5058924;28;20053;-59
2022/03/27 07:37:51;;;;;;;18.15;13.43;;;;;;;12.47;57.41;103146.44;5056480;28;20095;-60
2022/03/27 07:40:20;;;;;;;18.65;13.00;;;;;;;12.43;57.10;103138.88;5053358;28;20069;-58
2022/03/27 07:42:50;;;;;;;17.48;12.55;;;;;;;12.48;57.02;103150.81;5056115;28;20049;-61
2022/03/27 07:45:20;;;;;;;18.02;13.00;;;;;;;12.50;57.01;103153.34;5055697;28;20462;-58
2022/03/27 07:47:48;;;;;;;17.90;12.35;;;;;;;12.51;56.99;103149.63;5060522;28;20052;-58
2022/03/27 07:50:18;;;;;;;16.95;11.38;;;;;;;12.50;57.19;103147.94;5058738;28;20075;-58
2022/03/27 07:52:47;;;;;;;16.73;12.23;;;;;;;12.49;57.08;103141.72;5060038;28;20421;-57
2022/03/27 07:55:17;;;;;;;18.50;11.73;;;;;;;12.50;56.71;103145.25;5045564;28;20057;-59
2022/03/27 07:57:45;;;;;;;16.08;11.18;;;;;;;12.50;56.64;103135.31;5061880;28;20076;-59
2022/03/27 08:00:15;;;;;;;15.45;11.27;;;;;;;12.51;56.53;103136.13;5062604;28;20080;-59
2022/03/27 08:02:43;;;;;;;16.55;11.25;;;;;;;12.51;56.61;103136.97;5061438;28;20041;-59
2022/03/27 08:05:12;;;;;;;19.15;12.38;;;;;;;12.53;56.79;103126.00;5062580;28;20080;-59
2022/03/27 08:07:40;;;;;;;17.10;11.70;;;;;;;12.53;56.66;103136.81;5062238;28;20083;-60
2022/03/27 08:10:11;;;;;;;16.27;10.95;;;;;;;12.53;56.57;103126.00;5061374;28;20131;-59
2022/03/27 08:12:38;;;;;;;17.38;11.93;;;;;;;12.53;56.60;103128.72;5061951;28;20122;-59
2022/03/27 08:15:07;;;;;;;17.75;10.73;;;;;;;12.54;56.44;103125.00;5063762;28;20590;-59
2022/03/27 08:17:36;;;;;;;15.75;11.52;;;;;;;12.53;56.60;103128.72;5066070;28;20056;-59
2022/03/27 08:20:05;;;;;;;16.85;11.52;;;;;;;12.54;56.45;103125.00;5065293;28;20124;-59
2022/03/27 08:22:33;;;;;;;15.55;11.23;;;;;;;12.53;56.58;103129.56;5064902;28;20049;-60
2022/03/27 08:25:01;;;;;;;16.95;12.02;;;;;;;12.52;56.49;103129.72;5061549;28;20555;-60
2022/03/27 08:27:32;;;;;;;16.73;11.73;;;;;;;12.52;56.62;103133.25;5052998;28;20132;-59
2022/03/27 08:30:00;;;;;;;15.95;11.13;;;;;;;12.52;56.73;103132.44;5065238;28;20083;-58
2022/03/27 08:32:28;;;;;;;17.63;11.85;;;;;;;12.51;56.89;103136.97;5065726;28;20057;-60
2022/03/27 08:34:56;;;;;;;17.23;11.60;;;;;;;12.50;57.00;103131.78;5063731;28;20080;-59
2022/03/27 08:37:23;;;;;;;16.52;11.10;;;;;;;12.50;56.53;103137.16;5053199;28;20080;-59
2022/03/27 08:39:53;;;;;;;15.15;11.23;;;;;;;12.49;56.76;103141.72;5063975;28;20091;-59
2022/03/27 08:42:20;;;;;;;20.30;12.02;;;;;;;12.48;57.09;103139.19;5065556;28;20057;-59
2022/03/27 08:44:50;;;;;;;18.70;12.30;;;;;;;12.47;57.19;103134.81;5065843;28;20049;-57
2022/03/27 08:47:22;;;;;;;15.10;10.98;;;;;;;12.47;56.47;103143.75;5057017;28;20084;-59
2022/03/27 08:49:55;;;;;;;18.67;12.10;;;;;;;12.47;57.13;103134.81;5048256;28;20072;-59
2022/03/27 08:52:35;;;;;;;19.60;13.15;;;;;;;12.47;57.11;103137.50;5064802;28;20053;-59
2022/03/27 08:55:07;;;;;;;19.55;12.23;;;;;;;12.43;57.11;103145.13;5063363;28;20100;-59
2022/03/27 08:57:56;;;;;;;22.80;12.80;;;;;;;12.38;57.72;103145.66;5065055;28;20072;-58
2022/03/27 09:00:29;;;;;;;21.25;13.38;;;;;;;12.37;57.48;103146.69;5055407;28;20056;-59
2022/03/27 09:02:58;;;;;;;20.75;13.23;;;;;;;12.35;57.36;103148.72;5064812;28;20137;-59
2022/03/27 09:05:27;;;;;;;21.38;12.93;;;;;;;12.32;58.23;103146.38;5064593;28;20127;-58
2022/03/27 09:07:56;;;;;;;21.60;13.70;;;;;;;12.33;58.25;103149.91;5064677;28;20076;-59
2022/03/27 09:10:25;;;;;;;22.90;13.50;;;;;;;12.29;58.36;103153.97;5062372;28;20052;-59
2022/03/27 09:12:56;;;;;;;22.35;12.40;;;;;;;12.30;58.14;103155.66;5056199;28;20071;-59
2022/03/27 09:15:23;;;;;;;18.52;12.43;;;;;;;12.32;57.85;103149.06;5058456;28;20099;-59
2022/03/27 09:18:00;;;;;;;18.30;12.23;;;;;;;12.35;57.73;103158.66;5065003;28;20063;-58
2022/03/27 09:20:37;;;;;;;20.40;12.98;;;;;;;12.36;57.59;103153.09;5072807;28;20083;-59
2022/03/27 09:23:15;;;;;;;18.60;11.68;;;;;;;12.38;57.52;103158.31;5048506;28;20084;-60
2022/03/27 09:25:47;;;;;;;19.85;13.10;;;;;;;12.38;57.64;103161.00;5057512;28;20064;-59
2022/03/27 09:28:26;;;;;;;18.98;11.75;;;;;;;12.39;57.58;103159.97;5064664;28;20049;-59
2022/03/27 09:30:55;;;;;;;19.77;12.75;;;;;;;12.39;57.24;103171.59;5066037;28;20073;-59
2022/03/27 09:33:48;;;;;;;18.70;11.88;;;;;;;12.42;57.42;103166.88;5062827;28;20042;-59
2022/03/27 09:36:19;;;;;;;20.05;12.55;;;;;;;12.35;57.25;103147.88;5053882;28;20068;-60
2022/03/27 09:39:02;;;;;;;20.52;13.23;;;;;;;12.42;57.16;103156.09;5066334;28;20083;-60
2022/03/27 09:41:32;;;;;;;18.75;12.60;;;;;;;12.42;57.20;103148.84;5058463;28;20057;-60
2022/03/27 09:44:02;;;;;;;17.70;11.77;;;;;;;12.42;57.15;103154.22;5056221;28;20045;-60
2022/03/27 09:46:48;;;;;;;20.38;12.95;;;;;;;12.40;57.41;103158.97;4840674;28;10000988;-59
2022/03/27 09:49:18;;;;;;;18.70;11.52;;;;;;;12.43;57.33;103155.06;5055529;28;20273;-59
2022/03/27 09:51:54;;;;;;;23.40;13.13;;;;;;;12.45;57.27;103147.66;5059088;28;20104;-58
2022/03/27 09:54:22;;;;;;;17.42;12.55;;;;;;;12.44;57.11;103144.09;5056738;28;20091;-60
2022/03/27 09:56:50;;;;;;;17.15;11.43;;;;;;;12.46;57.18;103143.94;5060326;28;20113;-58
2022/03/27 09:59:30;;;;;;;19.55;12.52;;;;;;;12.45;57.17;103129.59;5058575;28;20135;-63
2022/03/27 10:02:18;;;;;;;19.25;11.98;;;;;;;12.38;57.16;103117.84;5057093;28;20080;-58
2022/03/27 10:04:59;;;;;;;17.77;12.32;;;;;;;12.44;56.88;103127.94;5059891;28;20048;-58
2022/03/27 10:07:32;;;;;;;18.48;12.48;;;;;;;12.43;57.87;103128.94;5060120;28;20111;-58
2022/03/27 10:10:01;;;;;;;18.73;12.95;;;;;;;12.42;57.58;103121.88;5052369;28;20085;-59
2022/03/27 10:12:30;;;;;;;18.85;12.18;;;;;;;12.42;57.65;103121.88;5050992;28;20507;-58
2022/03/27 10:15:03;;;;;;;18.40;12.57;;;;;;;12.44;57.61;103121.69;5058808;28;20612;-58
2022/03/27 10:17:33;;;;;;;16.88;12.48;;;;;;;12.45;57.45;103117.97;5053249;28;20079;-57
2022/03/27 10:20:06;;;;;;;19.23;12.38;;;;;;;12.46;57.32;103123.19;5068522;28;20065;-57
2022/03/27 10:22:38;;;;;;;16.98;11.77;;;;;;;12.47;57.29;103114.09;5057254;28;20052;-58
2022/03/27 10:25:09;;;;;;;19.15;12.70;;;;;;;12.47;57.37;103110.53;5052492;28;20052;-58
2022/03/27 10:27:39;;;;;;;19.35;12.90;;;;;;;12.47;57.28;103114.09;5060678;28;20045;-58
2022/03/27 10:30:09;;;;;;;18.92;12.07;;;;;;;12.48;57.20;103113.06;5048730;28;20056;-59
2022/03/27 10:32:37;;;;;;;21.65;13.32;;;;;;;12.48;57.30;103115.75;5055908;28;20459;-57
2022/03/27 10:35:22;;;;;;;22.70;14.15;;;;;;;12.49;57.15;103120.13;5060425;28;20103;-57
2022/03/27 10:37:59;;;;;;;19.00;13.15;;;;;;;12.49;57.32;103116.59;5052317;28;20060;-57
2022/03/27 10:40:35;;;;;;;21.35;13.00;;;;;;;12.49;57.68;103112.03;5062802;28;20108;-57
2022/03/27 10:43:06;;;;;;;;;;;;;;;12.49;57.56;103116.59;5061643;28;20288;-58
2022/03/27 10:45:35;;;;;;;19.73;12.88;;;;;;;12.49;57.67;103119.28;5057207;28;19956;-59
2022/03/27 10:48:11;;;;;;;20.65;14.30;;;;;;;12.48;57.96;103117.63;5055297;28;20071;-58
2022/03/27 10:50:51;;;;;;;21.65;13.73;;;;;;;12.48;57.85;103112.22;5062126;28;20057;-57
2022/03/27 10:53:21;;;;;;;21.50;14.20;;;;;;;12.47;57.91;103100.59;5056647;28;20102;-58
2022/03/27 10:55:52;;;;;;;21.77;14.13;;;;;;;12.48;57.57;103104.97;5060700;28;20057;-57
2022/03/27 10:58:37;;;;;;;21.45;14.32;;;;;;;12.50;57.87;103102.09;5052591;28;20068;-58
2022/03/27 11:01:08;;;;;;;21.60;14.45;;;;;;;12.48;57.88;103098.75;5056504;28;20088;-58
2022/03/27 11:04:04;;;;;;;24.92;14.60;;;;;;;12.51;57.88;103095.69;5056882;28;20129;-58
2022/03/27 11:06:35;;;;;;;22.90;15.43;;;;;;;12.52;57.79;103095.50;5057511;28;20128;-58
2022/03/27 11:09:05;;;;;;;21.92;13.30;;;;;;;12.53;57.63;103094.50;5070393;28;20049;-58
2022/03/27 11:11:54;;;;;;;20.35;14.45;;;;;;;12.54;57.97;103092.63;5064209;28;20049;-59
2022/03/27 11:14:40;;;;;;;20.92;14.77;;;;;;;12.53;57.91;103091.78;5063046;28;20091;-57
2022/03/27 11:17:13;;;;;;;21.33;13.93;;;;;;;12.55;57.63;103091.59;5061919;28;20140;-58
2022/03/27 11:19:44;;;;;;;21.45;14.82;;;;;;;12.56;57.49;103088.72;5049516;28;20060;-58
2022/03/27 11:22:47;;;;;;;19.52;13.40;;;;;;;12.58;57.57;103085.84;5061819;28;20064;-58
2022/03/27 11:25:47;;;;;;;21.90;14.73;;;;;;;12.60;57.29;103084.66;5061964;28;20053;-57
2022/03/27 11:28:16;;;;;;;20.13;13.80;;;;;;;12.61;57.53;103080.09;5060053;28;20179;-58
2022/03/27 11:31:20;;;;;;;19.83;13.55;;;;;;;12.63;57.31;103080.75;5061274;28;20114;-58
2022/03/27 11:34:26;;;;;;;18.98;13.75;;;;;;;12.64;57.38;103080.56;5062991;28;20049;-58